createdAt,value
2023-05-07T00:00:01.186Z,65.6
2023-05-07T00:01:05.934Z,65.5
2023-05-07T00:02:02.723Z,65.7
2023-05-07T00:03:01.399Z,65.3
2023-05-07T00:04:01.232Z,65.2
2023-05-07T00:05:01.114Z,64.9
2023-05-07T00:06:09.461Z,63.8
2023-05-07T00:07:01.096Z,63.5
2023-05-07T00:08:01.112Z,63.2
2023-05-07T00:09:01.095Z,63.8
2023-05-07T00:10:01.149Z,63.6
2023-05-07T00:11:10.988Z,64
2023-05-07T00:12:01.595Z,64.2
2023-05-07T00:13:01.242Z,64.2
2023-05-07T00:14:01.142Z,63.7
2023-05-07T00:15:01.116Z,63.9
2023-05-07T00:16:15.286Z,64.3
2023-05-07T00:17:01.046Z,64.7
2023-05-07T00:18:01.095Z,65.1
2023-05-07T00:19:01.149Z,65
2023-05-07T00:20:01.203Z,64.5
2023-05-07T00:21:16.731Z,64.2
2023-05-07T00:22:01.058Z,64.7
2023-05-07T00:23:00.723Z,65.4
2023-05-07T00:24:00.368Z,65.6
2023-05-07T00:24:59.948Z,65.6
2023-05-07T00:25:59.534Z,65.8
2023-05-07T00:27:01.082Z,66
2023-05-07T00:28:01.096Z,66.5
2023-05-07T00:29:01.096Z,66.4
2023-05-07T00:30:01.119Z,66.3
2023-05-07T00:31:01.488Z,66.3
2023-05-07T00:32:01.186Z,65.4
2023-05-07T00:33:04.019Z,65.3
2023-05-07T00:34:01.053Z,65.3
2023-05-07T00:35:01.025Z,65.3
2023-05-07T00:36:01.114Z,65.8
2023-05-07T00:37:01.384Z,65.7
2023-05-07T00:38:02.074Z,66.2
2023-05-07T00:39:02.600Z,66.1
2023-05-07T00:40:01.070Z,66.5
2023-05-07T00:41:01.176Z,66.2
2023-05-07T00:42:01.079Z,66.8
2023-05-07T00:43:01.145Z,66.9
2023-05-07T00:44:01.096Z,68.1
2023-05-07T00:45:01.097Z,68.7
2023-05-07T00:46:01.140Z,69
2023-05-07T00:47:01.124Z,69.4
2023-05-07T00:48:01.137Z,70.6
2023-05-07T00:49:01.555Z,71.5
2023-05-07T00:50:01.391Z,71.7
2023-05-07T00:51:02.249Z,72.3
2023-05-07T00:52:01.239Z,72.5
2023-05-07T00:53:01.057Z,73.2
2023-05-07T00:54:01.232Z,74.5
2023-05-07T00:55:01.107Z,75.2
2023-05-07T00:56:01.106Z,75.4
2023-05-07T00:57:01.473Z,75.3
2023-05-07T00:58:01.103Z,75.3
2023-05-07T00:59:01.158Z,75.3
2023-05-07T01:00:01.109Z,75.1
2023-05-07T01:01:01.159Z,74.8
2023-05-07T01:02:01.131Z,74.8
2023-05-07T01:03:01.155Z,75.3
2023-05-07T01:04:01.178Z,75.2
2023-05-07T01:05:02.561Z,75.5
2023-05-07T01:06:01.411Z,75.4
2023-05-07T01:07:01.876Z,75.1
2023-05-07T01:08:01.733Z,74.9
2023-05-07T01:09:01.988Z,75.2
2023-05-07T01:10:01.762Z,75.1
2023-05-07T01:11:01.140Z,75.3
2023-05-07T01:12:01.110Z,75.7
2023-05-07T01:13:01.174Z,75.6
2023-05-07T01:14:01.470Z,75.8
2023-05-07T01:15:02.257Z,76
2023-05-07T01:16:01.171Z,76.4
2023-05-07T01:17:02.007Z,76.9
2023-05-07T01:18:01.167Z,77.2
2023-05-07T01:19:01.915Z,77
2023-05-07T01:20:01.157Z,76.4
2023-05-07T01:21:01.144Z,75.8
2023-05-07T01:22:01.434Z,76.4
2023-05-07T01:23:02.079Z,77
2023-05-07T01:24:01.067Z,77.1
2023-05-07T01:25:01.055Z,77.6
2023-05-07T01:26:01.075Z,78
2023-05-07T01:27:01.067Z,77.8
2023-05-07T01:28:01.032Z,77.7
2023-05-07T01:29:01.251Z,77.9
2023-05-07T01:30:01.112Z,78
2023-05-07T01:31:01.221Z,77.8
2023-05-07T01:32:01.954Z,77.1
2023-05-07T01:33:01.589Z,76.5
2023-05-07T01:34:01.193Z,76.5
2023-05-07T01:35:01.154Z,76.5
2023-05-07T01:36:01.134Z,76.4
2023-05-07T01:37:01.120Z,76.4
2023-05-07T01:38:01.417Z,76.4
2023-05-07T01:39:01.051Z,76.4
2023-05-07T01:40:01.060Z,76.4
2023-05-07T01:41:01.247Z,76.5
2023-05-07T01:42:01.282Z,76.5
2023-05-07T01:43:01.063Z,76.5
2023-05-07T01:44:01.020Z,76
2023-05-07T01:45:01.074Z,76.1
2023-05-07T01:46:01.151Z,76
2023-05-07T01:47:04.785Z,76.3
2023-05-07T01:48:01.577Z,76.5
2023-05-07T01:49:01.286Z,76.1
2023-05-07T01:50:01.488Z,76.3
2023-05-07T01:51:01.531Z,76.5
2023-05-07T01:52:07.016Z,76.5
2023-05-07T01:53:01.162Z,76.5
2023-05-07T01:54:01.156Z,76.5
2023-05-07T01:55:01.053Z,76.4
2023-05-07T01:56:01.019Z,76.5
2023-05-07T01:57:10.538Z,76.2
2023-05-07T01:58:01.344Z,76.5
2023-05-07T01:59:00.947Z,76.5
2023-05-07T02:00:01.314Z,76.5
2023-05-07T02:01:00.683Z,76.5
2023-05-07T02:02:13.146Z,76.4
2023-05-07T02:03:01.198Z,76.3
2023-05-07T02:04:00.973Z,76.3
2023-05-07T02:05:01.097Z,76.5
2023-05-07T02:06:01.130Z,76.5
2023-05-07T02:07:15.294Z,76.5
2023-05-07T02:08:01.379Z,76.5
2023-05-07T02:09:01.513Z,76.5
2023-05-07T02:10:01.134Z,76.5
2023-05-07T02:11:01.028Z,76.6
2023-05-07T02:12:01.056Z,76.8
2023-05-07T02:13:01.078Z,76.5
2023-05-07T02:14:01.035Z,76.5
2023-05-07T02:15:01.081Z,76.5
2023-05-07T02:16:01.109Z,76.5
2023-05-07T02:17:01.074Z,76.5
2023-05-07T02:18:01.545Z,76.5
2023-05-07T02:19:01.472Z,75.9
2023-05-07T02:20:01.096Z,76
2023-05-07T02:21:01.036Z,76.4
2023-05-07T02:22:01.115Z,76.5
2023-05-07T02:23:01.364Z,76.4
2023-05-07T02:24:01.012Z,76.4
2023-05-07T02:25:01.986Z,76.5
2023-05-07T02:26:01.724Z,76.5
2023-05-07T02:27:01.040Z,76.4
2023-05-07T02:28:01.542Z,76.4
2023-05-07T02:29:01.067Z,76.4
2023-05-07T02:30:01.094Z,76.4
2023-05-07T02:31:01.070Z,76.4
2023-05-07T02:32:01.138Z,76.4
2023-05-07T02:33:01.149Z,76.4
2023-05-07T02:34:01.210Z,76.4
2023-05-07T02:35:04.611Z,76.4
2023-05-07T02:36:02.042Z,76.4
2023-05-07T02:37:01.474Z,76.4
2023-05-07T02:38:01.123Z,77
2023-05-07T02:39:01.560Z,77
2023-05-07T02:40:01.136Z,76.9
2023-05-07T02:41:01.175Z,77.1
2023-05-07T02:42:01.024Z,77.1
2023-05-07T02:43:01.222Z,77.5
2023-05-07T02:44:01.416Z,77.3
2023-05-07T02:45:01.175Z,77.3
2023-05-07T02:46:01.122Z,77.3
2023-05-07T02:47:01.039Z,77.9
2023-05-07T02:48:01.095Z,78.1
2023-05-07T02:49:01.083Z,78.3
2023-05-07T02:50:02.070Z,78.1
2023-05-07T02:51:01.033Z,78
2023-05-07T02:52:01.113Z,78.3
2023-05-07T02:53:01.372Z,78.4
2023-05-07T02:54:02.030Z,78.4
2023-05-07T02:55:01.071Z,78.4
2023-05-07T02:56:01.162Z,78.9
2023-05-07T02:57:01.137Z,79.2
2023-05-07T02:58:00.821Z,79.7
2023-05-07T02:59:00.517Z,79.6
2023-05-07T03:00:00.275Z,79.6
2023-05-07T03:01:00.036Z,79.3
2023-05-07T03:01:59.957Z,79.8
2023-05-07T03:02:59.638Z,80.1
2023-05-07T03:04:02.290Z,79.7
2023-05-07T03:05:01.256Z,79.8
2023-05-07T03:06:01.846Z,80
2023-05-07T03:07:01.091Z,79.8
2023-05-07T03:08:01.127Z,79.8
2023-05-07T03:09:01.303Z,79.8
2023-05-07T03:10:02.020Z,79.9
2023-05-07T03:11:02.201Z,79.9
2023-05-07T03:12:01.121Z,79.9
2023-05-07T03:13:01.165Z,79.4
2023-05-07T03:14:01.037Z,79
2023-05-07T03:15:01.039Z,78.4
2023-05-07T03:16:01.108Z,78.6
2023-05-07T03:17:00.827Z,78.6
2023-05-07T03:18:00.871Z,79
2023-05-07T03:19:01.512Z,78.6
2023-05-07T03:20:00.665Z,78.7
2023-05-07T03:21:00.389Z,78.9
2023-05-07T03:22:00.074Z,78.9
2023-05-07T03:22:59.631Z,79.1
2023-05-07T03:24:01.286Z,79.2
2023-05-07T03:25:01.316Z,79.3
2023-05-07T03:26:01.123Z,79.3
2023-05-07T03:27:01.387Z,79
2023-05-07T03:28:02.725Z,78.6
2023-05-07T03:29:01.146Z,78.4
2023-05-07T03:30:01.020Z,78.3
2023-05-07T03:31:01.065Z,77.4
2023-05-07T03:32:01.046Z,77.4
2023-05-07T03:33:05.667Z,77.8
2023-05-07T03:34:01.462Z,77.3
2023-05-07T03:35:01.305Z,77.2
2023-05-07T03:36:01.360Z,77.6
2023-05-07T03:37:01.124Z,77.3
2023-05-07T03:38:08.306Z,77.3
2023-05-07T03:39:00.678Z,77.4
2023-05-07T03:40:00.294Z,77.1
2023-05-07T03:41:00.037Z,76.4
2023-05-07T03:41:59.798Z,76.3
2023-05-07T03:43:11.388Z,76.4
2023-05-07T03:44:02.345Z,76.4
2023-05-07T03:45:04.072Z,76.5
2023-05-07T03:46:02.173Z,76.3
2023-05-07T03:47:01.461Z,76.5
2023-05-07T03:48:14.155Z,77
2023-05-07T03:49:01.034Z,77.2
2023-05-07T03:50:01.050Z,77.3
2023-05-07T03:51:01.066Z,77
2023-05-07T03:52:01.016Z,76.4
2023-05-07T03:53:15.803Z,76.4
2023-05-07T03:54:02.081Z,76.3
2023-05-07T03:55:01.099Z,76.4
2023-05-07T03:56:01.093Z,76.4
2023-05-07T03:57:01.110Z,76.4
2023-05-07T03:58:01.116Z,76.5
2023-05-07T03:59:01.116Z,76.9
2023-05-07T04:00:01.032Z,76.6
2023-05-07T04:01:01.124Z,76.8
2023-05-07T04:02:02.942Z,76.9
2023-05-07T04:03:01.127Z,76.4
2023-05-07T04:04:01.066Z,76.9
2023-05-07T04:05:00.906Z,77.6
2023-05-07T04:06:00.576Z,77.5
2023-05-07T04:07:00.273Z,77.8
2023-05-07T04:07:59.929Z,77.8
2023-05-07T04:08:59.519Z,78.6
2023-05-07T04:10:01.163Z,79.4
2023-05-07T04:11:01.542Z,80.1
2023-05-07T04:12:01.018Z,80.7
2023-05-07T04:13:01.131Z,80.9
2023-05-07T04:14:01.377Z,81
2023-05-07T04:15:01.409Z,81
2023-05-07T04:16:02.562Z,80.9
2023-05-07T04:17:01.161Z,80.3
2023-05-07T04:18:01.214Z,80.4
2023-05-07T04:19:01.061Z,80.6
2023-05-07T04:20:01.033Z,80.6
2023-05-07T04:21:00.748Z,80.9
2023-05-07T04:22:00.327Z,81
2023-05-07T04:23:00.132Z,81.3
2023-05-07T04:23:59.724Z,81.4
2023-05-07T04:25:02.190Z,81.2
2023-05-07T04:26:02.500Z,80.8
2023-05-07T04:27:01.090Z,80.9
2023-05-07T04:28:01.184Z,81.4
2023-05-07T04:29:01.101Z,81.4
2023-05-07T04:30:01.143Z,81.8
2023-05-07T04:31:01.219Z,81.4
2023-05-07T04:32:01.195Z,81.4
2023-05-07T04:33:01.151Z,81.9
2023-05-07T04:34:01.399Z,82.4
2023-05-07T04:35:01.040Z,82.6
2023-05-07T04:36:01.034Z,82.2
2023-05-07T04:37:01.038Z,81.2
2023-05-07T04:38:01.050Z,81.2
2023-05-07T04:39:01.069Z,81.5
2023-05-07T04:40:01.210Z,81.6
2023-05-07T04:41:00.750Z,81.4
2023-05-07T04:42:00.343Z,80.1
2023-05-07T04:42:59.943Z,79.8
2023-05-07T04:43:59.582Z,80.1
2023-05-07T04:45:01.682Z,79.9
2023-05-07T04:46:02.969Z,79.2
2023-05-07T04:47:01.173Z,78.6
2023-05-07T04:48:02.637Z,77.8
2023-05-07T04:49:01.459Z,77.2
2023-05-07T04:50:01.964Z,76
2023-05-07T04:51:13.667Z,76.3
2023-05-07T04:52:02.257Z,76.3
2023-05-07T04:53:01.924Z,76.3
2023-05-07T04:54:01.089Z,75.5
2023-05-07T04:55:01.103Z,74.5
2023-05-07T04:56:01.315Z,72.7
2023-05-07T04:57:01.376Z,70.4
2023-05-07T04:58:01.531Z,65.4
2023-05-07T04:59:01.026Z,64.8
2023-05-07T05:00:01.099Z,61.9
2023-05-07T05:01:04.247Z,57.1
2023-05-07T05:02:02.225Z,55.3
2023-05-07T05:03:01.299Z,55.5
2023-05-07T05:04:01.675Z,55.3
2023-05-07T05:05:01.133Z,54.8
2023-05-07T05:06:01.151Z,54.8
2023-05-07T05:07:01.044Z,54.7
2023-05-07T05:08:01.160Z,54.8
2023-05-07T05:09:01.077Z,55.1
2023-05-07T05:10:00.893Z,54.8
2023-05-07T05:11:01.049Z,53.6
2023-05-07T05:12:00.909Z,51.9
2023-05-07T05:13:00.753Z,51.3
2023-05-07T05:14:00.835Z,51.2
2023-05-07T05:15:01.935Z,49.5
2023-05-07T05:16:01.788Z,49
2023-05-07T05:17:02.321Z,49.2
2023-05-07T05:18:01.205Z,48.7
2023-05-07T05:19:03.791Z,48.7
2023-05-07T05:20:01.919Z,49.3
2023-05-07T05:21:01.548Z,50
2023-05-07T05:22:01.066Z,49.7
2023-05-07T05:23:01.953Z,49.7
2023-05-07T05:24:05.761Z,50
2023-05-07T05:25:01.452Z,50.3
2023-05-07T05:26:01.106Z,50.5
2023-05-07T05:27:01.062Z,50.1
2023-05-07T05:28:01.091Z,49.7
2023-05-07T05:29:09.624Z,49.3
2023-05-07T05:30:01.100Z,49.4
2023-05-07T05:31:01.331Z,49.4
2023-05-07T05:32:01.184Z,48.9
2023-05-07T05:33:01.274Z,49
2023-05-07T05:34:11.665Z,49.9
2023-05-07T05:35:01.541Z,50.3
2023-05-07T05:36:01.269Z,50.8
2023-05-07T05:37:01.132Z,51.4
2023-05-07T05:38:01.141Z,51.8
2023-05-07T05:39:13.493Z,52.3
2023-05-07T05:40:00.731Z,52
2023-05-07T05:41:00.349Z,51.8
2023-05-07T05:42:00.014Z,52.3
2023-05-07T05:42:59.608Z,52.6
2023-05-07T05:44:16.041Z,52.8
2023-05-07T05:45:01.399Z,52.6
2023-05-07T05:46:02.175Z,52.7
2023-05-07T05:47:01.137Z,52.7
2023-05-07T05:48:01.159Z,52.1
2023-05-07T05:49:01.105Z,50.8
2023-05-07T05:50:01.119Z,49.2
2023-05-07T05:51:01.144Z,49.5
2023-05-07T05:52:01.195Z,49.5
2023-05-07T05:53:01.636Z,47
2023-05-07T05:54:01.350Z,46.8
2023-05-07T05:55:01.118Z,47.1
2023-05-07T05:56:01.565Z,46.7
2023-05-07T05:57:01.270Z,47.4
2023-05-07T05:58:01.978Z,47.7
2023-05-07T05:59:01.614Z,47.7
2023-05-07T06:00:01.024Z,46.6
2023-05-07T06:01:00.787Z,45.7
2023-05-07T06:02:01.139Z,45.6
2023-05-07T06:03:04.148Z,45.7
2023-05-07T06:04:01.093Z,45.7
2023-05-07T06:05:01.567Z,45.9
2023-05-07T06:06:01.519Z,45.8
2023-05-07T06:07:01.110Z,45.7
2023-05-07T06:08:00.812Z,44.6
2023-05-07T06:09:00.516Z,42.3
2023-05-07T06:10:00.394Z,42.4
2023-05-07T06:11:00.041Z,41.9
2023-05-07T06:12:00.823Z,41.9
2023-05-07T06:13:01.460Z,42.4
2023-05-07T06:14:02.182Z,41.9
2023-05-07T06:15:01.252Z,42
2023-05-07T06:16:01.069Z,41.9
2023-05-07T06:17:01.081Z,42
2023-05-07T06:18:01.523Z,41.4
2023-05-07T06:19:01.177Z,40.6
2023-05-07T06:20:01.029Z,40.8
2023-05-07T06:21:00.803Z,41
2023-05-07T06:22:00.386Z,41.6
2023-05-07T06:23:00.059Z,41.2
2023-05-07T06:23:59.671Z,40.8
2023-05-07T06:25:01.796Z,41.2
2023-05-07T06:26:02.771Z,41
2023-05-07T06:27:01.044Z,40.6
2023-05-07T06:28:01.462Z,41.3
2023-05-07T06:29:01.033Z,41.5
2023-05-07T06:30:01.467Z,41.7
2023-05-07T06:31:01.084Z,41.5
2023-05-07T06:32:01.206Z,41.8
2023-05-07T06:33:01.096Z,41.5
2023-05-07T06:34:01.077Z,41.6
2023-05-07T06:35:01.756Z,41.2
2023-05-07T06:36:01.102Z,41.7
2023-05-07T06:37:01.115Z,42.4
2023-05-07T06:38:01.108Z,42.8
2023-05-07T06:39:01.130Z,43.2
2023-05-07T06:40:01.117Z,43
2023-05-07T06:41:01.237Z,43.1
2023-05-07T06:42:00.721Z,42.5
2023-05-07T06:43:00.310Z,42.7
2023-05-07T06:43:59.907Z,43.1
2023-05-07T06:44:59.513Z,43.6
2023-05-07T06:46:02.060Z,43.4
2023-05-07T06:47:01.068Z,43.6
2023-05-07T06:48:01.186Z,42.5
2023-05-07T06:49:01.081Z,42.3
2023-05-07T06:50:01.851Z,42.7
2023-05-07T06:51:01.380Z,43.3
2023-05-07T06:52:01.132Z,43.7
2023-05-07T06:53:01.101Z,43.3
2023-05-07T06:54:01.107Z,42.7
2023-05-07T06:55:01.137Z,41.5
2023-05-07T06:56:01.136Z,42.2
2023-05-07T06:57:01.701Z,42.5
2023-05-07T06:58:01.518Z,41.8
2023-05-07T06:59:01.175Z,42.4
2023-05-07T07:00:00.825Z,41.5
2023-05-07T07:01:01.680Z,42
2023-05-07T07:02:00.889Z,42
2023-05-07T07:03:00.740Z,41.2
2023-05-07T07:04:00.456Z,41.3
2023-05-07T07:05:00.230Z,41.9
2023-05-07T07:06:00.044Z,40.7
2023-05-07T07:06:59.644Z,41.2
2023-05-07T07:08:01.278Z,41.1
2023-05-07T07:09:01.281Z,42
2023-05-07T07:10:01.816Z,42.2
2023-05-07T07:11:02.819Z,42.3
2023-05-07T07:12:01.217Z,42.2
2023-05-07T07:13:01.177Z,41.6
2023-05-07T07:14:01.365Z,41.6
2023-05-07T07:15:05.758Z,41.5
2023-05-07T07:16:02.486Z,41.6
2023-05-07T07:17:02.049Z,41.9
2023-05-07T07:18:02.127Z,41.8
2023-05-07T07:19:01.222Z,40.9
2023-05-07T07:20:09.713Z,40.5
2023-05-07T07:21:00.904Z,38.4
2023-05-07T07:22:00.606Z,38
2023-05-07T07:23:00.394Z,38.9
2023-05-07T07:24:00.070Z,38.8
2023-05-07T07:25:10.974Z,38.9
2023-05-07T07:26:01.532Z,38.4
2023-05-07T07:27:00.690Z,37.7
2023-05-07T07:28:00.402Z,37.3
2023-05-07T07:29:00.124Z,36.5
2023-05-07T07:30:12.519Z,36.5
2023-05-07T07:31:01.145Z,36.4
2023-05-07T07:32:01.903Z,36.3
2023-05-07T07:33:01.110Z,35.6
2023-05-07T07:34:01.048Z,33.1
2023-05-07T07:35:16.681Z,33.9
2023-05-07T07:36:01.057Z,32
2023-05-07T07:37:01.059Z,32.5
2023-05-07T07:38:01.091Z,32.5
2023-05-07T07:39:01.091Z,32.9
2023-05-07T07:40:01.146Z,33.2
2023-05-07T07:41:01.106Z,32.9
2023-05-07T07:42:00.522Z,32.8
2023-05-07T07:43:00.575Z,32.7
2023-05-07T07:44:00.166Z,32.4
2023-05-07T07:44:59.800Z,31.7
2023-05-07T07:46:01.424Z,32
2023-05-07T07:47:01.086Z,32.1
2023-05-07T07:48:01.075Z,32
2023-05-07T07:49:01.087Z,32
2023-05-07T07:50:01.112Z,30.9
2023-05-07T07:51:01.322Z,28.7
2023-05-07T07:52:01.393Z,28.6
2023-05-07T07:53:01.061Z,29.2
2023-05-07T07:54:01.085Z,28
2023-05-07T07:55:01.033Z,26.8
2023-05-07T07:56:02.264Z,27
2023-05-07T07:57:02.223Z,27
2023-05-07T07:58:02.858Z,27.6
2023-05-07T07:59:01.932Z,26.6
2023-05-07T08:00:01.573Z,26.1
2023-05-07T08:01:01.031Z,26.2
2023-05-07T08:02:00.757Z,26.2
2023-05-07T08:03:00.546Z,25.9
2023-05-07T08:04:00.383Z,25.5
2023-05-07T08:05:00.159Z,25.7
2023-05-07T08:05:59.801Z,26
2023-05-07T08:07:01.455Z,25.7
2023-05-07T08:08:01.196Z,25.9
2023-05-07T08:09:01.063Z,26.1
2023-05-07T08:10:01.063Z,25.9
2023-05-07T08:11:01.094Z,26.2
2023-05-07T08:12:01.219Z,25.7
2023-05-07T08:13:01.264Z,25.3
2023-05-07T08:14:01.507Z,25.5
2023-05-07T08:15:01.116Z,25.1
2023-05-07T08:16:01.134Z,25.4
2023-05-07T08:17:01.186Z,24.8
2023-05-07T08:18:01.274Z,24.5
2023-05-07T08:19:01.044Z,24.6
2023-05-07T08:20:01.154Z,24.2
2023-05-07T08:21:01.670Z,23.5
2023-05-07T08:22:01.448Z,24.2
2023-05-07T08:23:01.630Z,24.1
2023-05-07T08:24:01.047Z,22.9
2023-05-07T08:25:01.093Z,22.2
2023-05-07T08:26:01.825Z,22.1
2023-05-07T08:27:01.103Z,21.6
2023-05-07T08:28:01.809Z,21.4
2023-05-07T08:29:01.102Z,20.3
2023-05-07T08:30:01.159Z,19.6
2023-05-07T08:31:02.351Z,18.2
2023-05-07T08:32:01.123Z,18.5
2023-05-07T08:33:01.186Z,18
2023-05-07T08:34:01.182Z,18.4
2023-05-07T08:35:01.040Z,18.9
2023-05-07T08:36:01.421Z,18.9
2023-05-07T08:37:01.059Z,19.2
2023-05-07T08:38:01.057Z,19.6
2023-05-07T08:39:01.059Z,18.1
2023-05-07T08:40:01.091Z,17.5
2023-05-07T08:41:01.095Z,17.5
2023-05-07T08:42:00.782Z,18
2023-05-07T08:43:00.477Z,17.7
2023-05-07T08:44:00.052Z,17.7
2023-05-07T08:44:59.659Z,18
2023-05-07T08:46:03.605Z,18
2023-05-07T08:47:01.125Z,18.5
2023-05-07T08:48:01.132Z,18
2023-05-07T08:49:01.060Z,18
2023-05-07T08:50:01.152Z,17.9
2023-05-07T08:51:06.203Z,17
2023-05-07T08:52:01.429Z,18.5
2023-05-07T08:53:01.075Z,18.2
2023-05-07T08:54:01.030Z,18.5
2023-05-07T08:55:01.024Z,18.2
2023-05-07T08:56:09.190Z,18
2023-05-07T08:57:01.083Z,18
2023-05-07T08:58:01.023Z,17.2
2023-05-07T08:59:01.090Z,17
2023-05-07T09:00:01.455Z,17.5
2023-05-07T09:01:11.955Z,16.5
2023-05-07T09:02:02.061Z,16.1
2023-05-07T09:03:01.245Z,16.1
2023-05-07T09:04:01.244Z,15.5
2023-05-07T09:05:01.157Z,16
2023-05-07T09:06:14.942Z,15.7
2023-05-07T09:07:02.595Z,15.2
2023-05-07T09:08:01.440Z,14.1
2023-05-07T09:09:01.420Z,13.6
2023-05-07T09:10:01.055Z,13.4
2023-05-07T09:11:01.107Z,13.4
2023-05-07T09:12:01.063Z,13.3
2023-05-07T09:13:01.120Z,13.7
2023-05-07T09:14:01.101Z,13.5
2023-05-07T09:15:01.489Z,12.3
2023-05-07T09:16:01.226Z,12.6
2023-05-07T09:17:01.088Z,13
2023-05-07T09:18:01.162Z,11.3
2023-05-07T09:19:01.284Z,11.2
2023-05-07T09:20:01.999Z,10.2
2023-05-07T09:21:01.299Z,9.6
2023-05-07T09:22:01.950Z,9.9
2023-05-07T09:23:01.190Z,9.6
2023-05-07T09:24:01.437Z,10
2023-05-07T09:25:01.052Z,9.4
2023-05-07T09:26:01.034Z,9.4
2023-05-07T09:27:01.082Z,9.5
2023-05-07T09:28:01.067Z,10.3
2023-05-07T09:29:01.085Z,9.7
2023-05-07T09:30:01.170Z,9.2
2023-05-07T09:31:03.945Z,8.7
2023-05-07T09:32:01.445Z,8.2
2023-05-07T09:33:01.591Z,8.6
2023-05-07T09:34:02.156Z,8.8
2023-05-07T09:35:01.219Z,10.2
2023-05-07T09:36:01.116Z,9.7
2023-05-07T09:37:01.109Z,8.3
2023-05-07T09:38:03.704Z,7.4
2023-05-07T09:39:01.118Z,8.5
2023-05-07T09:40:01.162Z,7.7
2023-05-07T09:41:01.042Z,7.7
2023-05-07T09:42:01.274Z,6.8
2023-05-07T09:43:00.741Z,6.9
2023-05-07T09:44:00.350Z,7.4
2023-05-07T09:45:00.158Z,8.6
2023-05-07T09:45:59.801Z,8.3
2023-05-07T09:47:01.770Z,8.5
2023-05-07T09:48:01.782Z,9.1
2023-05-07T09:49:01.400Z,8.9
2023-05-07T09:50:02.045Z,9.4
2023-05-07T09:51:02.690Z,9.3
2023-05-07T09:52:02.065Z,8.5
2023-05-07T09:53:01.226Z,8.6
2023-05-07T09:54:01.131Z,8.6
2023-05-07T09:55:01.662Z,8.1
2023-05-07T09:56:03.598Z,7.6
2023-05-07T09:57:01.022Z,7.7
2023-05-07T09:58:01.054Z,7.9
2023-05-07T09:59:01.392Z,8.2
2023-05-07T10:00:02.165Z,8.5
2023-05-07T10:01:01.770Z,7.2
2023-05-07T10:02:02.804Z,6.7
2023-05-07T10:03:01.233Z,7.1
2023-05-07T10:04:02.076Z,6.6
2023-05-07T10:05:02.322Z,5.8
2023-05-07T10:06:01.227Z,6.2
2023-05-07T10:07:01.238Z,5.7
2023-05-07T10:08:04.520Z,5.5
2023-05-07T10:09:01.124Z,6.2
2023-05-07T10:10:01.150Z,6.3
2023-05-07T10:11:01.074Z,6.9
2023-05-07T10:12:01.070Z,7.3
2023-05-07T10:13:01.390Z,7
2023-05-07T10:14:02.791Z,7
2023-05-07T10:15:01.334Z,7.1
2023-05-07T10:16:01.869Z,6.8
2023-05-07T10:17:01.120Z,6.5
2023-05-07T10:18:00.654Z,6.1
2023-05-07T10:19:00.708Z,6.7
2023-05-07T10:20:00.946Z,6.6
2023-05-07T10:21:01.367Z,6.5
2023-05-07T10:22:00.852Z,6.3
2023-05-07T10:23:01.967Z,7
2023-05-07T10:24:03.031Z,7.3
2023-05-07T10:25:01.200Z,8
2023-05-07T10:26:01.918Z,7.8
2023-05-07T10:27:02.898Z,7.6
2023-05-07T10:28:00.639Z,7.8
2023-05-07T10:29:00.280Z,7.8
2023-05-07T10:29:59.935Z,7.8
2023-05-07T10:30:59.764Z,8.2
2023-05-07T10:32:05.499Z,8.3
2023-05-07T10:33:02.340Z,8.5
2023-05-07T10:34:02.113Z,8.4
2023-05-07T10:35:02.112Z,7.7
2023-05-07T10:36:01.122Z,8.1
2023-05-07T10:37:09.576Z,8.3
2023-05-07T10:38:01.918Z,8
2023-05-07T10:39:01.493Z,8.2
2023-05-07T10:40:01.229Z,7.7
2023-05-07T10:41:00.924Z,8.3
2023-05-07T10:42:12.255Z,8.2
2023-05-07T10:43:01.053Z,8.3
2023-05-07T10:44:01.056Z,8.7
2023-05-07T10:45:01.065Z,8
2023-05-07T10:46:01.185Z,8
2023-05-07T10:47:14.490Z,7.7
2023-05-07T10:48:01.927Z,8.1
2023-05-07T10:49:01.049Z,8.3
2023-05-07T10:50:01.088Z,8.3
2023-05-07T10:51:01.757Z,8.3
2023-05-07T10:52:16.441Z,8.5
2023-05-07T10:53:01.528Z,8.3
2023-05-07T10:54:01.148Z,9.1
2023-05-07T10:55:01.133Z,8.5
2023-05-07T10:56:00.804Z,8.4
2023-05-07T10:57:00.476Z,9
2023-05-07T10:58:00.136Z,8.7
2023-05-07T10:58:59.827Z,8.6
2023-05-07T11:00:01.584Z,8.5
2023-05-07T11:01:02.408Z,9
2023-05-07T11:02:01.878Z,7.6
2023-05-07T11:03:02.030Z,7.2
2023-05-07T11:04:00.581Z,7.5
2023-05-07T11:05:01.108Z,6.2
2023-05-07T11:06:01.073Z,6.5
2023-05-07T11:07:01.914Z,6.9
2023-05-07T11:08:02.330Z,6.9
2023-05-07T11:09:02.150Z,7.9
2023-05-07T11:10:01.845Z,7.4
2023-05-07T11:11:01.174Z,6.4
2023-05-07T11:12:01.124Z,5.7
2023-05-07T11:13:01.563Z,5.8
2023-05-07T11:14:01.842Z,5.7
2023-05-07T11:15:01.711Z,5.4
2023-05-07T11:16:01.781Z,5.4
2023-05-07T11:17:01.124Z,4.8
2023-05-07T11:18:00.748Z,4.8
2023-05-07T11:19:00.458Z,6
2023-05-07T11:20:00.044Z,5.4
2023-05-07T11:20:59.730Z,5.2
2023-05-07T11:22:01.753Z,5.1
2023-05-07T11:23:01.873Z,5.1
2023-05-07T11:24:01.503Z,5.3
2023-05-07T11:25:01.417Z,4.9
2023-05-07T11:26:02.677Z,5
2023-05-07T11:27:03.851Z,5.3
2023-05-07T11:28:01.228Z,5.8
2023-05-07T11:29:01.951Z,5.6
2023-05-07T11:30:02.430Z,5.5
2023-05-07T11:31:01.030Z,5.3
2023-05-07T11:32:01.052Z,5.5
2023-05-07T11:33:01.490Z,5.8
2023-05-07T11:34:01.133Z,6
2023-05-07T11:35:02.254Z,6.3
2023-05-07T11:36:01.077Z,5.5
2023-05-07T11:37:01.067Z,5.8
2023-05-07T11:38:01.071Z,6.1
2023-05-07T11:39:01.041Z,6
2023-05-07T11:40:01.687Z,6.3
2023-05-07T11:41:01.392Z,6.1
2023-05-07T11:42:01.466Z,6.8
2023-05-07T11:43:02.140Z,7.1
2023-05-07T11:44:01.216Z,6
2023-05-07T11:45:01.392Z,6
2023-05-07T11:46:01.182Z,6.3
2023-05-07T11:47:01.703Z,6.3
2023-05-07T11:48:00.989Z,6.9
2023-05-07T11:49:00.745Z,6.9
2023-05-07T11:50:00.438Z,5.9
2023-05-07T11:51:00.147Z,5.7
2023-05-07T11:51:59.725Z,4.9
2023-05-07T11:53:01.742Z,5.5
2023-05-07T11:54:01.351Z,5.4
2023-05-07T11:55:02.146Z,5.6
2023-05-07T11:56:02.103Z,5.5
2023-05-07T11:57:01.510Z,4.3
2023-05-07T11:58:02.091Z,4.2
2023-05-07T11:59:01.120Z,3.5
2023-05-07T12:00:01.116Z,4.1
2023-05-07T12:01:01.129Z,4.5
2023-05-07T12:02:01.148Z,3.3
2023-05-07T12:03:01.344Z,2.7
2023-05-07T12:04:01.941Z,2.3
2023-05-07T12:05:02.198Z,1.4
2023-05-07T12:06:01.076Z,1.7
2023-05-07T12:07:01.094Z,1
2023-05-07T12:08:01.060Z,1
2023-05-07T12:09:01.094Z,1
2023-05-07T12:10:01.074Z,1
2023-05-07T12:11:01.460Z,1
2023-05-07T12:12:01.226Z,1
2023-05-07T12:13:01.213Z,1
2023-05-07T12:14:01.098Z,1
2023-05-07T12:15:01.705Z,1
2023-05-07T12:16:01.132Z,1
2023-05-07T12:17:01.197Z,1
2023-05-07T12:18:00.783Z,1
2023-05-07T12:19:00.743Z,1
2023-05-07T12:20:00.420Z,1
2023-05-07T12:20:59.996Z,1
2023-05-07T12:21:59.596Z,1
2023-05-07T12:23:03.415Z,1
2023-05-07T12:24:01.976Z,1
2023-05-07T12:25:02.151Z,1
2023-05-07T12:26:01.088Z,1
2023-05-07T12:27:01.141Z,1
2023-05-07T12:28:05.463Z,1
2023-05-07T12:29:02.227Z,1
2023-05-07T12:30:01.568Z,1
2023-05-07T12:31:01.206Z,1
2023-05-07T12:32:03.665Z,1
2023-05-07T12:33:09.273Z,1
2023-05-07T12:34:01.525Z,1
2023-05-07T12:35:01.994Z,1
2023-05-07T12:36:02.253Z,1
2023-05-07T12:37:01.428Z,1
2023-05-07T12:38:11.708Z,1
2023-05-07T12:39:02.210Z,1
2023-05-07T12:40:01.322Z,1
2023-05-07T12:41:01.838Z,1
2023-05-07T12:42:01.079Z,1
2023-05-07T12:43:14.935Z,1
2023-05-07T12:44:00.900Z,1
2023-05-07T12:45:00.714Z,1
2023-05-07T12:46:00.434Z,1
2023-05-07T12:47:00.181Z,1
2023-05-07T12:47:59.932Z,1
2023-05-07T12:48:59.580Z,1
2023-05-07T12:50:01.222Z,1
2023-05-07T12:51:01.987Z,1
2023-05-07T12:52:01.845Z,1
2023-05-07T12:53:01.357Z,1
2023-05-07T12:54:01.216Z,1
2023-05-07T12:55:01.085Z,1
2023-05-07T12:56:01.195Z,1
2023-05-07T12:57:01.034Z,1
2023-05-07T12:58:01.095Z,1
2023-05-07T12:59:01.144Z,1
2023-05-07T13:00:01.242Z,1
2023-05-07T13:01:01.925Z,1
2023-05-07T13:02:01.351Z,1
2023-05-07T13:03:01.397Z,1
2023-05-07T13:04:01.160Z,1
2023-05-07T13:05:03.975Z,1
2023-05-07T13:06:02.660Z,1
2023-05-07T13:07:01.008Z,1
2023-05-07T13:08:01.053Z,1
2023-05-07T13:09:01.056Z,1
2023-05-07T13:10:01.172Z,1
2023-05-07T13:11:01.148Z,1
2023-05-07T13:12:00.676Z,1
2023-05-07T13:13:00.538Z,1
2023-05-07T13:14:00.259Z,1
2023-05-07T13:14:59.965Z,1
2023-05-07T13:15:59.736Z,1
2023-05-07T13:17:01.446Z,1
2023-05-07T13:18:01.078Z,1
2023-05-07T13:19:01.918Z,1
2023-05-07T13:20:01.087Z,1
2023-05-07T13:21:01.148Z,1
2023-05-07T13:22:01.852Z,1
2023-05-07T13:23:01.854Z,1
2023-05-07T13:24:01.505Z,1
2023-05-07T13:25:01.723Z,1
2023-05-07T13:26:08.509Z,1
2023-05-07T13:27:02.555Z,1
2023-05-07T13:28:10.234Z,1
2023-05-07T13:29:01.173Z,1
2023-05-07T13:30:01.306Z,1
2023-05-07T13:31:01.429Z,1
2023-05-07T13:32:01.570Z,1
2023-05-07T13:33:01.596Z,1
2023-05-07T13:34:01.321Z,1
2023-05-07T13:35:01.065Z,1
2023-05-07T13:36:01.143Z,1
2023-05-07T13:37:01.286Z,1
2023-05-07T13:38:02.132Z,1